Rocky Mount Wilson Regional Airport
KRWI : now visible

Airfield :











YOU CAN JOIN US ON...

 
LOGIN :

Register | Disclaimer

   EN    FR    IT 

 









Legend :    VFR   Marginal VFR   IFR   Intensive IFR   Very Intensive IFR
Visi :
Ceiling :
>= 8 km
>= 3000ft
5 to 8 km
1000 to 3000 ft
1500m to 5 km
500 to 1000 ft
800 to 1500m
200 to 500 ft
< 800m
< 200 ft
Symbols :   Thunderstorms  Fog  Heavy snow  Heavy precipitations  Wind > 20 kt






- Airport Elevation : 159 ft
- IATA code : RWI


KRWI - Rocky Mount Wilson Regional

CURRENT METAR :
  • 161753Z AUTO 25004KT 10SM CLR 12/01 A3018 RMK AO2 SLP221 T01170011 10122 21017 58034

EXPIRED METARs :
  • 161653Z AUTO VRB04KT 10SM CLR 11/01 A3023 RMK AO2 PRESFR SLP238 T01110011
  • 161553Z AUTO 23005KT 10SM CLR 08/01 A3028 RMK AO2 SLP255 T00830006

TAF KRWI
Valid from the 16 at 18:00 until the 17 at 18:00 UTC


161740Z 1618/1718 23006KT P6SM BKN200
FM170200 VRB03KT 6SM -RA SCT022 BKN050 OVC090
FM170400 VRB03KT 5SM -RA BKN012 OVC035
FM170900 VRB02KT 6SM BR SCT006 BKN012
TEMPO 1710/1713 5SM BR BKN005
FM171300 03005KT P6SM FEW020 SCT200



MET'MAP, your aeronautical weather chart ! - Copyright ORBIFLY December 2007 - Disclaimer

ORBIFLY MET'MAP TEAM :

Programming & Development : Alexandra Zaïnal
Concept & original design : Baudouin d'Aumeries
Assistance for programming : Marc-Olivier Méhu
Technical & hardware support : Manuel Goepfert

Contact : metmap@orbifly.com




SOURCES & CREDITS :

   NOAA       Earth
Advisory